Time;durP1;ratioP1;P1;durP2;ratioP2;P2;SDS_P1;SDS_P2;PMS_P1;PMS_P2;Temp;Humidity;BMP_temperature;BMP_pressure;BME280_temperature;BME280_humidity;BME280_pressure;Samples;Min_cycle;Max_cycle;Signal;HPM_P1;HPM_P2
2024/03/20 00:00:14;;;;;;;25.23;11.25;;;;;;;4.48;100.00;96489.22;1026871;28;20034;-70
2024/03/20 00:00:45;;;;;;;20.45;10.13;;;;;;;4.63;100.00;96506.41;1027063;28;20027;-69
2024/03/20 00:01:15;;;;;;;19.00;9.65;;;;;;;4.56;100.00;96497.78;1026992;28;20440;-70
2024/03/20 00:01:45;;;;;;;17.63;9.05;;;;;;;4.60;100.00;96509.41;1022902;28;20027;-69
2024/03/20 00:02:16;;;;;;;17.25;8.55;;;;;;;4.58;100.00;96507.00;1031153;28;20046;-71
2024/03/20 00:02:46;;;;;;;19.35;9.40;;;;;;;4.58;100.00;96511.38;1030982;28;20030;-69
2024/03/20 00:03:17;;;;;;;17.75;8.50;;;;;;;4.56;100.00;96513.38;1030696;28;20061;-69
2024/03/20 00:03:47;;;;;;;16.73;8.45;;;;;;;4.53;100.00;96508.59;1037283;28;20491;-70
2024/03/20 00:04:18;;;;;;;14.10;8.75;;;;;;;4.51;100.00;96505.41;1035114;28;20450;-69
2024/03/20 00:04:48;;;;;;;14.55;7.47;;;;;;;4.47;100.00;96500.63;1030661;28;20372;-69
2024/03/20 00:05:19;;;;;;;14.93;8.15;;;;;;;4.46;100.00;96504.25;1038931;28;20371;-69
2024/03/20 00:05:49;;;;;;;18.17;8.75;;;;;;;4.45;100.00;96505.22;1034733;28;20046;-70
2024/03/20 00:06:19;;;;;;;18.48;7.90;;;;;;;4.43;100.00;96507.25;1030798;28;20148;-69
2024/03/20 00:06:50;;;;;;;16.10;8.40;;;;;;;4.43;100.00;96503.84;1026839;28;20042;-70
2024/03/20 00:07:20;;;;;;;12.00;7.40;;;;;;;4.41;100.00;96505.84;1022644;28;20142;-69
2024/03/20 00:07:51;;;;;;;11.95;6.97;;;;;;;4.40;100.00;96499.84;1026603;28;20035;-69
2024/03/20 00:08:21;;;;;;;12.98;8.02;;;;;;;4.38;100.00;96501.84;1022488;28;20099;-69
2024/03/20 00:08:52;;;;;;;14.38;7.72;;;;;;;4.37;100.00;96502.84;1030552;28;20034;-69
2024/03/20 00:09:23;;;;;;;14.02;7.78;;;;;;;4.35;100.00;96499.66;1030937;28;20030;-70
2024/03/20 00:09:53;;;;;;;16.05;7.85;;;;;;;4.35;100.00;96502.25;1026977;28;20027;-69
2024/03/20 00:10:23;;;;;;;12.75;7.55;;;;;;;4.29;100.00;96494.47;1030686;28;20019;-68
2024/03/20 00:10:54;;;;;;;13.32;7.68;;;;;;;4.37;100.00;96504.66;1030072;28;20042;-70
2024/03/20 00:11:24;;;;;;;11.45;7.20;;;;;;;4.29;100.00;96490.06;1029935;28;20578;-69
2024/03/20 00:11:56;;;;;;;12.30;7.18;;;;;;;4.34;100.00;96505.06;1038703;28;20349;-69
2024/03/20 00:12:26;;;;;;;15.70;7.85;;;;;;;4.33;100.00;96496.47;1034937;28;20021;-70
2024/03/20 00:12:57;;;;;;;11.35;6.05;;;;;;;4.33;100.00;96499.09;1030719;28;20269;-69
2024/03/20 00:13:27;;;;;;;11.90;7.40;;;;;;;4.32;100.00;96505.25;1031447;28;20042;-69
2024/03/20 00:13:58;;;;;;;11.85;6.85;;;;;;;4.29;100.00;96503.06;1034193;28;20034;-69
2024/03/20 00:14:28;;;;;;;14.20;7.18;;;;;;;4.28;100.00;96500.69;1035583;28;20030;-69
2024/03/20 00:14:59;;;;;;;10.43;6.22;;;;;;;4.21;100.00;96501.50;1035914;28;20030;-69
2024/03/20 00:15:29;;;;;;;10.02;6.32;;;;;;;4.24;100.00;96503.69;1031236;28;20502;-70
2024/03/20 00:16:00;;;;;;;12.98;6.90;;;;;;;4.24;100.00;96506.28;1031404;28;20081;-69
2024/03/20 00:16:31;;;;;;;11.73;7.20;;;;;;;4.24;100.00;96505.50;1031015;28;20480;-69
2024/03/20 00:17:02;;;;;;;10.38;6.75;;;;;;;4.18;100.00;96501.91;1030898;28;20085;-69
2024/03/20 00:17:33;;;;;;;15.02;6.95;;;;;;;4.23;100.00;96506.50;1030608;28;20561;-70
2024/03/20 00:18:03;;;;;;;11.98;7.00;;;;;;;4.22;100.00;96507.47;1026624;28;20301;-69
2024/03/20 00:18:36;;;;;;;12.82;6.97;;;;;;;4.20;100.00;96505.09;1029998;28;20036;-70
2024/03/20 00:19:06;;;;;;;11.43;7.20;;;;;;;4.17;100.00;96504.72;1027489;28;20117;-69
2024/03/20 00:19:37;;;;;;;14.45;7.60;;;;;;;4.19;100.00;96510.47;1028279;28;20282;-70
2024/03/20 00:20:07;;;;;;;15.32;7.25;;;;;;;4.17;100.00;96509.91;1026403;28;20648;-69
2024/03/20 00:20:38;;;;;;;15.73;8.02;;;;;;;4.15;100.00;96511.88;1027897;28;20620;-69
2024/03/20 00:21:08;;;;;;;11.20;7.43;;;;;;;4.12;100.00;96507.09;1030726;28;20037;-69
2024/03/20 00:21:39;;;;;;;14.00;7.65;;;;;;;4.11;100.00;96505.50;1026719;28;20023;-69
2024/03/20 00:22:09;;;;;;;11.32;7.13;;;;;;;4.10;100.00;96506.53;1030542;28;20042;-69
2024/03/20 00:22:40;;;;;;;11.10;7.15;;;;;;;4.08;100.00;96505.91;1024448;28;20089;-70
2024/03/20 00:23:10;;;;;;;12.40;7.70;;;;;;;4.08;100.00;96505.91;1026986;28;20046;-69
2024/03/20 00:23:40;;;;;;;14.05;7.30;;;;;;;4.06;100.00;96507.91;1022542;29;20583;-69
2024/03/20 00:24:12;;;;;;;13.52;7.28;;;;;;;3.97;100.00;96496.94;1022594;28;20039;-69
2024/03/20 00:24:42;;;;;;;15.50;8.32;;;;;;;4.01;100.00;96506.72;1026997;28;20474;-69
2024/03/20 00:25:13;;;;;;;14.30;7.18;;;;;;;3.96;100.00;96500.56;1026948;28;20273;-69
2024/03/20 00:25:43;;;;;;;19.60;8.60;;;;;;;3.99;100.00;96508.72;1030677;28;20038;-70
2024/03/20 00:26:14;;;;;;;12.50;7.38;;;;;;;3.92;100.00;96494.97;1030853;28;20081;-71
2024/03/20 00:26:46;;;;;;;13.98;7.70;;;;;;;3.96;100.00;96503.94;1026852;28;20027;-69
2024/03/20 00:27:16;;;;;;;14.70;7.65;;;;;;;3.95;100.00;96507.53;1031396;28;20027;-70
2024/03/20 00:27:47;;;;;;;15.45;7.97;;;;;;;3.93;100.00;96504.34;1030591;28;20721;-69
2024/03/20 00:28:17;;;;;;;19.73;8.35;;;;;;;3.91;100.00;96503.72;1030315;28;20026;-69
2024/03/20 00:28:48;;;;;;;16.15;8.52;;;;;;;3.91;100.00;96506.31;1033102;28;20103;-70
2024/03/20 00:29:18;;;;;;;17.95;8.50;;;;;;;3.90;100.00;96498.75;1027683;28;20039;-69
2024/03/20 00:29:48;;;;;;;17.02;8.02;;;;;;;3.89;100.00;96505.75;1023580;28;20039;-69
2024/03/20 00:30:19;;;;;;;15.38;7.80;;;;;;;3.81;100.00;96490.38;1026850;28;20126;-70
2024/03/20 00:30:49;;;;;;;13.77;7.30;;;;;;;3.83;100.00;96487.59;1026681;28;20035;-69
2024/03/20 00:31:20;;;;;;;14.65;7.70;;;;;;;3.86;100.00;96498.38;1035148;28;20034;-69
2024/03/20 00:31:52;;;;;;;12.35;7.03;;;;;;;3.85;100.00;96496.75;1031509;28;20046;-69
2024/03/20 00:32:22;;;;;;;13.85;7.38;;;;;;;3.84;100.00;96494.38;1026693;28;20066;-69
2024/03/20 00:32:53;;;;;;;12.18;7.45;;;;;;;3.83;100.00;96493.56;1030545;28;20269;-68
2024/03/20 00:33:23;;;;;;;12.60;7.32;;;;;;;3.79;100.00;96489.78;1027124;28;20538;-69
2024/03/20 00:33:54;;;;;;;13.25;7.97;;;;;;;3.82;100.00;96485.97;1026790;28;20035;-69
2024/03/20 00:34:25;;;;;;;12.15;7.57;;;;;;;3.83;100.00;96492.78;1026655;28;20093;-69
2024/03/20 00:34:55;;;;;;;10.55;6.80;;;;;;;3.83;100.00;96493.56;1022782;29;20031;-69
2024/03/20 00:35:26;;;;;;;11.75;7.15;;;;;;;3.85;100.00;96496.75;1035025;28;20265;-69
2024/03/20 00:35:56;;;;;;;11.30;6.88;;;;;;;3.84;100.00;96494.38;1033810;28;20033;-71
2024/03/20 00:36:27;;;;;;;13.65;7.68;;;;;;;3.75;100.00;96478.19;1030763;28;20030;-69
2024/03/20 00:36:57;;;;;;;16.23;8.00;;;;;;;3.83;100.00;96493.56;1022953;28;20027;-69
2024/03/20 00:37:30;;;;;;;15.63;7.70;;;;;;;3.81;100.00;96492.97;1026863;28;20040;-69
2024/03/20 00:38:00;;;;;;;10.77;7.43;;;;;;;3.77;100.00;96487.38;1022710;29;20016;-70
2024/03/20 00:38:30;;;;;;;11.65;8.07;;;;;;;3.84;100.00;96494.38;1038141;28;20268;-69
2024/03/20 00:39:01;;;;;;;13.93;7.25;;;;;;;3.81;100.00;96492.97;1026625;28;20023;-71
2024/03/20 00:39:31;;;;;;;11.57;7.10;;;;;;;3.79;100.00;96492.38;1030831;28;20029;-69
2024/03/20 00:40:04;;;;;;;13.75;7.43;;;;;;;3.78;100.00;96496.75;1022839;29;20024;-70
2024/03/20 00:40:34;;;;;;;15.00;7.80;;;;;;;3.73;100.00;96490.59;1022890;28;20031;-70
2024/03/20 00:41:04;;;;;;;12.25;7.53;;;;;;;3.80;100.00;96490.56;1023120;28;20367;-70
2024/03/20 00:41:35;;;;;;;13.63;7.80;;;;;;;3.79;100.00;96492.38;1027066;28;20027;-69
2024/03/20 00:42:05;;;;;;;16.08;7.63;;;;;;;3.79;100.00;96494.97;1030843;28;20022;-69
2024/03/20 00:42:36;;;;;;;11.60;7.35;;;;;;;3.80;100.00;96493.97;1026599;28;20058;-69
2024/03/20 00:43:07;;;;;;;16.08;8.20;;;;;;;3.76;100.00;96492.78;1030773;28;20021;-69
2024/03/20 00:43:38;;;;;;;13.57;7.60;;;;;;;3.72;100.00;96482.00;1026701;28;20019;-69
2024/03/20 00:44:09;;;;;;;12.43;7.85;;;;;;;3.78;100.00;96493.34;1026815;28;20266;-69
2024/03/20 00:44:39;;;;;;;18.42;8.02;;;;;;;3.76;100.00;96490.19;1026569;28;20262;-69
2024/03/20 00:45:09;;;;;;;12.57;7.93;;;;;;;3.74;100.00;96484.38;1027004;28;20023;-69
2024/03/20 00:45:40;;;;;;;10.73;7.05;;;;;;;3.72;100.00;96486.38;1026903;28;20019;-69
2024/03/20 00:46:10;;;;;;;16.10;7.35;;;;;;;3.71;100.00;96489.97;1030559;28;20531;-69
2024/03/20 00:46:41;;;;;;;12.80;7.50;;;;;;;3.70;100.00;96490.97;1026893;28;20031;-69
2024/03/20 00:47:11;;;;;;;13.75;8.20;;;;;;;3.69;100.00;96481.56;1026616;28;20030;-69
2024/03/20 00:47:42;;;;;;;14.00;7.90;;;;;;;3.68;100.00;96493.75;1026813;28;20027;-70
2024/03/20 00:48:12;;;;;;;16.65;7.95;;;;;;;3.69;100.00;96489.34;1025437;28;20043;-69
2024/03/20 00:48:42;;;;;;;11.02;6.90;;;;;;;3.67;100.00;96491.38;1030879;28;20076;-69
2024/03/20 00:49:13;;;;;;;15.27;7.57;;;;;;;3.67;100.00;96493.97;1030920;28;20029;-70
2024/03/20 00:49:43;;;;;;;15.15;7.85;;;;;;;3.64;100.00;96489.97;1033399;28;20424;-70
2024/03/20 00:50:14;;;;;;;11.90;7.72;;;;;;;3.64;100.00;96494.38;1038860;28;20560;-70
2024/03/20 00:50:45;;;;;;;13.57;7.82;;;;;;;3.63;100.00;96497.97;1034973;28;20030;-70
2024/03/20 00:51:15;;;;;;;11.70;7.60;;;;;;;3.63;100.00;96490.19;1034566;28;20454;-70
2024/03/20 00:51:46;;;;;;;10.10;7.28;;;;;;;3.63;100.00;96490.19;1030980;28;20030;-70
2024/03/20 00:52:16;;;;;;;10.57;7.35;;;;;;;3.61;100.00;96489.56;1030797;28;20026;-70
2024/03/20 00:52:46;;;;;;;16.45;7.63;;;;;;;3.64;100.00;96491.78;1026714;28;20034;-70
2024/03/20 00:53:17;;;;;;;14.88;7.78;;;;;;;3.62;100.00;96491.16;1025959;28;20034;-71
2024/03/20 00:53:47;;;;;;;11.98;7.05;;;;;;;3.62;100.00;96491.16;1030840;28;20041;-69
2024/03/20 00:54:18;;;;;;;24.50;8.00;;;;;;;3.61;100.00;96492.16;1026875;28;20484;-69
2024/03/20 00:54:48;;;;;;;19.27;7.88;;;;;;;3.58;100.00;96484.78;1033349;28;20562;-70
2024/03/20 00:55:19;;;;;;;11.32;7.55;;;;;;;3.60;100.00;96493.19;1026602;28;20512;-69
2024/03/20 00:55:49;;;;;;;11.85;7.47;;;;;;;3.58;100.00;96489.97;1022977;28;20035;-69
2024/03/20 00:56:20;;;;;;;13.25;7.10;;;;;;;3.52;100.00;96484.59;1026557;28;20027;-70
2024/03/20 00:56:50;;;;;;;14.00;7.55;;;;;;;3.57;100.00;96490.97;1032335;28;20106;-69
2024/03/20 00:57:21;;;;;;;17.35;7.53;;;;;;;3.54;100.00;96492.97;1043083;28;20032;-67
2024/03/20 00:57:51;;;;;;;13.57;7.70;;;;;;;3.52;100.00;96489.78;1042890;28;20021;-69
2024/03/20 00:58:21;;;;;;;14.30;7.13;;;;;;;3.46;100.00;96472.41;1034149;28;20089;-70
2024/03/20 00:58:52;;;;;;;15.38;7.40;;;;;;;3.51;100.00;96488.16;1026876;28;20034;-69
2024/03/20 00:59:22;;;;;;;11.88;7.50;;;;;;;3.48;100.00;96482.59;1026584;28;20026;-69
2024/03/20 00:59:53;;;;;;;11.55;7.22;;;;;;;3.49;100.00;96487.59;1022867;29;20035;-69
2024/03/20 01:00:23;;;;;;;14.93;7.32;;;;;;;3.45;100.00;96481.19;1026637;28;20106;-68
2024/03/20 01:00:54;;;;;;;12.30;7.50;;;;;;;3.49;100.00;96484.19;1026734;28;20034;-69
2024/03/20 01:01:24;;;;;;;10.45;6.53;;;;;;;3.46;100.00;96482.78;1027073;28;20019;-72
2024/03/20 01:01:55;;;;;;;12.82;7.47;;;;;;;3.45;100.00;96483.78;1027695;28;20027;-68
2024/03/20 01:02:25;;;;;;;13.50;7.88;;;;;;;3.45;100.00;96488.16;1026706;28;20035;-69
2024/03/20 01:02:56;;;;;;;14.55;7.43;;;;;;;3.43;100.00;96482.38;1026954;28;20511;-70
2024/03/20 01:03:26;;;;;;;11.73;6.95;;;;;;;3.42;100.00;96488.56;1026717;28;20015;-70
2024/03/20 01:03:57;;;;;;;13.15;7.32;;;;;;;3.41;100.00;96490.34;1026763;28;20486;-69
2024/03/20 01:04:28;;;;;;;15.25;7.57;;;;;;;3.40;100.00;96475.81;1030842;28;20027;-70
2024/03/20 01:04:59;;;;;;;13.90;7.50;;;;;;;3.41;100.00;96479.19;1030939;28;20039;-69
2024/03/20 01:05:29;;;;;;;17.05;7.78;;;;;;;3.40;100.00;96481.00;1034952;28;20097;-69
2024/03/20 01:06:00;;;;;;;15.00;6.90;;;;;;;3.39;100.00;96479.41;1034646;28;20476;-70
2024/03/20 01:06:30;;;;;;;11.23;7.05;;;;;;;3.37;100.00;96473.59;1030860;28;20432;-70
2024/03/20 01:07:01;;;;;;;16.55;7.88;;;;;;;3.39;100.00;96476.81;1030870;28;20432;-70
2024/03/20 01:07:31;;;;;;;11.93;7.57;;;;;;;3.39;100.00;96476.81;1031098;28;20027;-69
2024/03/20 01:08:01;;;;;;;13.13;7.07;;;;;;;3.40;100.00;96481.00;1031563;28;20129;-69
2024/03/20 01:08:32;;;;;;;11.77;7.40;;;;;;;3.40;100.00;96472.41;1030961;28;20019;-69
2024/03/20 01:09:05;;;;;;;14.48;7.63;;;;;;;3.39;100.00;96476.00;1035068;28;20029;-69
2024/03/20 01:09:36;;;;;;;13.20;7.25;;;;;;;3.40;100.00;96472.41;1032042;28;20507;-69
2024/03/20 01:10:07;;;;;;;13.32;7.25;;;;;;;3.35;100.00;96465.22;1035293;28;20277;-69
2024/03/20 01:10:37;;;;;;;11.65;7.18;;;;;;;3.39;100.00;96476.81;1031694;28;20026;-70
2024/03/20 01:11:08;;;;;;;13.40;7.75;;;;;;;3.37;100.00;96476.19;1030578;28;20268;-70
2024/03/20 01:11:38;;;;;;;11.30;7.07;;;;;;;3.37;100.00;96473.59;1035418;28;20033;-69
2024/03/20 01:12:09;;;;;;;12.25;7.97;;;;;;;3.35;100.00;96474.78;1035545;28;20358;-70
2024/03/20 01:12:39;;;;;;;11.38;6.97;;;;;;;3.36;100.00;96472.00;1035486;28;20450;-69
2024/03/20 01:13:10;;;;;;;12.65;7.45;;;;;;;3.35;100.00;96475.59;1035463;28;20514;-69
2024/03/20 01:13:40;;;;;;;12.68;7.38;;;;;;;3.35;100.00;96475.59;1027702;28;20093;-70
2024/03/20 01:14:11;;;;;;;14.85;7.60;;;;;;;3.35;100.00;96473.00;1031476;28;20408;-69
2024/03/20 01:14:44;;;;;;;14.93;7.35;;;;;;;3.34;100.00;96473.19;1027343;28;20026;-70
2024/03/20 01:15:14;;;;;;;10.18;7.00;;;;;;;3.30;100.00;96478.78;1028086;28;20018;-69
2024/03/20 01:15:45;;;;;;;16.25;7.53;;;;;;;3.30;100.00;96478.00;1031263;28;20747;-69
2024/03/20 01:16:15;;;;;;;10.05;6.75;;;;;;;3.30;100.00;96470.22;1032307;28;20039;-69
2024/03/20 01:16:48;;;;;;;14.85;7.28;;;;;;;3.29;100.00;96476.41;1035498;28;20534;-70
2024/03/20 01:17:20;;;;;;;16.25;8.05;;;;;;;3.28;100.00;96477.38;1035703;28;20026;-70
2024/03/20 01:17:51;;;;;;;13.15;6.97;;;;;;;3.25;100.00;96470.00;1035634;28;20269;-70
2024/03/20 01:18:21;;;;;;;13.20;7.45;;;;;;;3.23;100.00;96472.00;1035541;28;20762;-69
2024/03/20 01:18:52;;;;;;;12.85;7.13;;;;;;;3.22;100.00;96468.63;1035148;28;20021;-70
2024/03/20 01:19:22;;;;;;;9.73;6.47;;;;;;;3.24;100.00;96478.78;1031932;28;20022;-69
2024/03/20 01:19:53;;;;;;;11.23;7.40;;;;;;;3.20;100.00;96456.84;1031380;28;20053;-69
2024/03/20 01:20:24;;;;;;;13.27;6.97;;;;;;;3.24;100.00;96473.59;1027673;28;20381;-69
2024/03/20 01:20:55;;;;;;;12.10;7.20;;;;;;;3.23;100.00;96477.19;1027440;28;20301;-69
2024/03/20 01:21:26;;;;;;;11.52;6.40;;;;;;;3.24;100.00;96471.00;1031425;28;20037;-68
2024/03/20 01:21:56;;;;;;;14.90;7.60;;;;;;;3.24;100.00;96466.59;1035603;28;20018;-70
2024/03/20 01:22:27;;;;;;;13.05;7.03;;;;;;;3.09;100.00;96449.66;1034971;28;20276;-69
2024/03/20 01:22:58;;;;;;;13.50;8.00;;;;;;;3.20;100.00;96462.81;1031000;28;20034;-68
2024/03/20 01:23:29;;;;;;;11.43;7.10;;;;;;;3.22;100.00;96465.19;1031923;28;20023;-69
2024/03/20 01:23:59;;;;;;;11.25;7.10;;;;;;;3.20;100.00;96462.03;1034508;28;20261;-70
2024/03/20 01:24:29;;;;;;;14.70;7.43;;;;;;;3.17;100.00;96465.78;1035714;28;20030;-69
2024/03/20 01:25:00;;;;;;;12.40;7.00;;;;;;;3.18;100.00;96469.19;1039376;28;20021;-69
2024/03/20 01:25:30;;;;;;;13.63;7.43;;;;;;;3.18;100.00;96462.19;1035493;28;20038;-70
2024/03/20 01:26:01;;;;;;;13.07;7.28;;;;;;;3.20;100.00;96464.63;1031688;28;20031;-69
2024/03/20 01:26:31;;;;;;;11.57;7.25;;;;;;;3.17;100.00;96458.03;1027177;28;20035;-71
2024/03/20 01:27:02;;;;;;;15.02;8.00;;;;;;;3.16;100.00;96460.81;1027242;28;20022;-69
2024/03/20 01:27:32;;;;;;;15.02;7.70;;;;;;;3.12;100.00;96459.59;1027433;28;20099;-70
2024/03/20 01:28:03;;;;;;;14.40;6.85;;;;;;;3.09;100.00;96445.25;1019462;29;20419;-69
2024/03/20 01:28:34;;;;;;;12.88;6.60;;;;;;;3.06;100.00;96456.81;1022960;28;20494;-69
2024/03/20 01:29:04;;;;;;;11.02;6.75;;;;;;;3.12;100.00;96459.59;1035306;28;20025;-70
2024/03/20 01:29:35;;;;;;;12.18;7.32;;;;;;;3.10;100.00;96462.41;1039492;28;20025;-69
2024/03/20 01:30:06;;;;;;;13.25;6.97;;;;;;;3.10;100.00;96462.41;1039842;28;20032;-69
2024/03/20 01:30:37;;;;;;;14.23;7.82;;;;;;;3.07;100.00;96457.59;1043105;28;20021;-69
2024/03/20 01:31:07;;;;;;;13.25;7.47;;;;;;;3.06;100.00;96459.41;1031207;28;20270;-69
2024/03/20 01:31:38;;;;;;;13.73;7.82;;;;;;;3.06;100.00;96462.00;1027392;28;20140;-69
2024/03/20 01:32:08;;;;;;;10.00;6.72;;;;;;;3.07;100.00;96463.59;1027289;28;20407;-70
2024/03/20 01:32:38;;;;;;;13.98;6.93;;;;;;;3.01;100.00;96455.78;1027275;28;20026;-69
2024/03/20 01:33:09;;;;;;;10.57;6.88;;;;;;;3.08;100.00;96466.97;1027253;28;20026;-70
2024/03/20 01:33:39;;;;;;;11.63;7.20;;;;;;;3.09;100.00;96470.38;1031315;28;20018;-69
2024/03/20 01:34:10;;;;;;;11.77;7.22;;;;;;;3.03;100.00;96457.19;1032088;28;20022;-68
2024/03/20 01:34:40;;;;;;;13.15;6.72;;;;;;;3.06;100.00;96467.19;1035273;28;20590;-69
2024/03/20 01:35:11;;;;;;;16.02;7.10;;;;;;;3.07;100.00;96468.78;1039266;28;20406;-70
2024/03/20 01:35:41;;;;;;;15.00;6.93;;;;;;;3.07;100.00;96462.78;1039599;28;20033;-71
2024/03/20 01:36:11;;;;;;;12.48;7.18;;;;;;;3.04;100.00;96469.16;1035028;28;20022;-69
2024/03/20 01:36:42;;;;;;;13.80;6.75;;;;;;;3.03;100.00;96462.38;1031544;28;20031;-69
2024/03/20 01:37:12;;;;;;;11.25;7.13;;;;;;;3.04;100.00;96463.97;1035163;28;20042;-69
2024/03/20 01:37:43;;;;;;;10.80;7.20;;;;;;;3.05;100.00;96467.38;1031146;28;20034;-69
2024/03/20 01:38:13;;;;;;;11.63;7.22;;;;;;;3.02;100.00;96460.81;1030905;28;20084;-69
2024/03/20 01:38:44;;;;;;;12.40;6.82;;;;;;;2.99;100.00;96461.19;1031379;28;20034;-69
2024/03/20 01:39:15;;;;;;;11.82;7.35;;;;;;;3.00;100.00;96462.78;1035109;28;20038;-69
2024/03/20 01:39:46;;;;;;;20.02;7.85;;;;;;;2.97;100.00;96464.97;1035606;28;20049;-68
2024/03/20 01:40:16;;;;;;;13.82;6.95;;;;;;;2.97;100.00;96457.97;1039459;28;20385;-69
2024/03/20 01:40:47;;;;;;;13.18;7.50;;;;;;;2.97;100.00;96463.16;1039632;28;20100;-69
2024/03/20 01:41:17;;;;;;;12.52;7.28;;;;;;;2.98;100.00;96463.97;1035142;28;20144;-70
2024/03/20 01:41:48;;;;;;;13.23;7.85;;;;;;;2.96;100.00;96459.00;1039492;28;20088;-68
2024/03/20 01:42:18;;;;;;;11.48;6.97;;;;;;;2.90;100.00;96451.19;1035512;28;20026;-69
2024/03/20 01:42:48;;;;;;;13.98;7.00;;;;;;;2.95;100.00;96465.19;1031271;28;20030;-70
2024/03/20 01:43:20;;;;;;;11.10;6.95;;;;;;;2.92;100.00;96456.97;1031242;28;20039;-69
2024/03/20 01:43:56;;;;;;;14.75;6.47;;;;;;;2.95;100.00;96459.16;1023342;29;20023;-70
2024/03/20 01:44:26;;;;;;;16.38;6.80;;;;;;;2.93;100.00;96453.41;1025482;28;20756;-69
2024/03/20 01:45:29;;;;;;;10.65;6.70;;;;;;;2.92;100.00;96451.78;1032424;28;20257;-69
2024/03/20 01:45:59;;;;;;;9.63;6.60;;;;;;;2.90;100.00;96449.41;1030744;28;20041;-69
2024/03/20 01:46:32;;;;;;;14.15;7.43;;;;;;;2.93;100.00;96464.56;1023092;29;20278;-69
2024/03/20 01:47:02;;;;;;;15.40;7.38;;;;;;;2.94;100.00;96458.38;1020800;29;20036;-69
2024/03/20 01:47:33;;;;;;;12.95;6.68;;;;;;;2.91;100.00;96453.59;1023648;28;20270;-69
2024/03/20 01:48:04;;;;;;;16.02;7.75;;;;;;;2.97;100.00;96463.16;1028721;28;20030;-69
2024/03/20 01:48:34;;;;;;;11.45;7.68;;;;;;;2.96;100.00;96459.00;1038537;28;20498;-69
2024/03/20 01:49:05;;;;;;;12.98;7.28;;;;;;;2.93;100.00;96451.59;1036671;28;20025;-70
2024/03/20 01:49:35;;;;;;;12.23;6.75;;;;;;;2.97;100.00;96462.38;1030976;28;20019;-69
2024/03/20 01:50:07;;;;;;;11.07;6.90;;;;;;;2.95;100.00;96459.16;1027533;28;20019;-70
2024/03/20 01:50:37;;;;;;;12.85;7.40;;;;;;;2.92;100.00;96450.00;1023615;28;20589;-69
2024/03/20 01:51:08;;;;;;;10.75;7.03;;;;;;;2.92;100.00;96456.97;1019608;28;20267;-70
2024/03/20 01:51:39;;;;;;;13.45;7.63;;;;;;;2.94;100.00;96458.38;1025628;28;20022;-69
2024/03/20 01:52:10;;;;;;;12.55;6.50;;;;;;;2.92;100.00;96457.78;1023277;29;20400;-70
2024/03/20 01:52:53;;;;;;;17.27;7.60;;;;;;;2.91;100.00;96453.59;1021195;29;20259;-69
2024/03/20 01:53:24;;;;;;;16.40;7.72;;;;;;;2.90;100.00;96456.38;1025194;28;20019;-70
2024/03/20 01:53:57;;;;;;;12.48;7.65;;;;;;;2.88;100.00;96451.38;1029416;28;20736;-69
2024/03/20 01:54:28;;;;;;;13.50;7.32;;;;;;;2.89;100.00;96455.59;1033720;28;20534;-69
2024/03/20 01:54:58;;;;;;;15.40;6.95;;;;;;;2.89;100.00;96455.59;1023602;28;20259;-69
2024/03/20 01:55:29;;;;;;;9.95;6.45;;;;;;;2.90;100.00;96452.00;1031307;28;20029;-69
2024/03/20 01:55:59;;;;;;;12.60;7.47;;;;;;;2.84;100.00;96438.00;1023368;29;20030;-69
2024/03/20 01:56:31;;;;;;;13.00;7.05;;;;;;;2.89;100.00;96453.00;1027209;28;20023;-70
2024/03/20 01:57:02;;;;;;;11.82;7.30;;;;;;;2.87;100.00;96456.78;1024331;28;20073;-69
2024/03/20 01:57:32;;;;;;;11.65;6.72;;;;;;;2.86;100.00;96455.97;1021342;28;20816;-70
2024/03/20 01:58:03;;;;;;;14.82;7.13;;;;;;;2.82;100.00;96449.59;1028914;28;20022;-70
2024/03/20 01:58:33;;;;;;;16.10;7.85;;;;;;;2.86;100.00;96455.97;1032422;28;20022;-70
2024/03/20 01:59:04;;;;;;;13.80;6.78;;;;;;;2.82;100.00;96450.38;1039464;28;20029;-70
2024/03/20 01:59:34;;;;;;;12.63;6.97;;;;;;;2.83;100.00;96451.19;1038999;28;20091;-68
2024/03/20 02:00:06;;;;;;;13.68;6.82;;;;;;;2.84;100.00;96457.94;1033738;28;20372;-69
2024/03/20 02:00:36;;;;;;;15.50;7.93;;;;;;;2.75;100.00;96440.97;1034953;28;20423;-70
2024/03/20 02:01:06;;;;;;;11.60;7.18;;;;;;;2.73;100.00;96437.81;1028506;28;20358;-70
2024/03/20 02:01:37;;;;;;;11.25;7.78;;;;;;;2.60;100.00;96421.22;1028343;28;20053;-69
2024/03/20 02:02:07;;;;;;;12.20;7.47;;;;;;;2.78;100.00;96449.19;1023912;29;20166;-69
2024/03/20 02:02:38;;;;;;;21.17;7.95;;;;;;;2.77;100.00;96451.97;1027446;28;20473;-69
2024/03/20 02:03:08;;;;;;;15.15;7.22;;;;;;;2.76;100.00;96445.19;1023254;29;20484;-71
2024/03/20 02:03:39;;;;;;;16.77;7.00;;;;;;;2.64;100.00;96429.41;1022094;28;20042;-69
2024/03/20 02:04:10;;;;;;;18.80;7.20;;;;;;;2.77;100.00;96449.38;1035462;28;20426;-69
2024/03/20 02:04:40;;;;;;;12.82;7.53;;;;;;;2.72;100.00;96444.00;1035334;28;20046;-69
2024/03/20 02:05:11;;;;;;;13.65;7.80;;;;;;;2.75;100.00;96449.56;1039330;28;20462;-69
2024/03/20 02:05:41;;;;;;;16.98;7.50;;;;;;;2.74;100.00;96453.13;1035557;28;20410;-69
2024/03/20 02:06:23;;;;;;;13.60;7.28;;;;;;;2.73;100.00;96454.13;1031076;28;20487;-69
2024/03/20 02:06:53;;;;;;;17.20;7.80;;;;;;;2.74;100.00;96449.75;1031264;28;20495;-69
2024/03/20 02:07:24;;;;;;;15.73;8.07;;;;;;;2.72;100.00;96454.34;1035237;28;20513;-70
2024/03/20 02:07:55;;;;;;;11.35;6.82;;;;;;;2.72;100.00;96444.00;1039227;28;20033;-69
2024/03/20 02:08:25;;;;;;;12.38;7.60;;;;;;;2.71;100.00;96447.56;1034947;28;20096;-69
2024/03/20 02:08:57;;;;;;;13.15;7.80;;;;;;;2.65;100.00;96445.72;1037254;28;20513;-68
2024/03/20 02:09:27;;;;;;;11.18;7.47;;;;;;;2.66;100.00;96447.34;1027034;28;20019;-69
2024/03/20 02:09:57;;;;;;;12.57;7.15;;;;;;;2.69;100.00;96452.94;1023342;28;20283;-69
2024/03/20 02:10:28;;;;;;;11.30;6.85;;;;;;;2.68;100.00;96447.94;1026977;28;20050;-69
2024/03/20 02:10:58;;;;;;;13.65;7.80;;;;;;;2.68;100.00;96445.34;1026805;28;20030;-68
2024/03/20 02:11:29;;;;;;;12.23;7.28;;;;;;;2.61;100.00;96434.97;1030986;28;20079;-69
2024/03/20 02:12:00;;;;;;;14.02;7.30;;;;;;;2.66;100.00;96449.94;1039081;28;20039;-69
2024/03/20 02:12:30;;;;;;;13.40;7.45;;;;;;;2.65;100.00;96451.75;1035822;28;20522;-69
2024/03/20 02:13:02;;;;;;;13.52;7.35;;;;;;;2.59;100.00;96442.16;1035207;28;20030;-69
2024/03/20 02:13:32;;;;;;;11.82;6.97;;;;;;;2.63;100.00;96448.53;1033574;28;20121;-68
2024/03/20 02:14:04;;;;;;;13.98;7.07;;;;;;;2.63;100.00;96443.34;1030228;28;20327;-69
2024/03/20 02:14:38;;;;;;;11.65;7.10;;;;;;;2.66;100.00;96449.94;1032456;28;20026;-70
2024/03/20 02:15:09;;;;;;;12.95;7.75;;;;;;;2.66;100.00;96455.13;1029120;28;20265;-69
2024/03/20 02:15:39;;;;;;;13.57;7.80;;;;;;;2.64;100.00;96446.72;1028810;28;20755;-69
2024/03/20 02:16:10;;;;;;;15.85;8.23;;;;;;;2.62;100.00;96448.75;1031225;28;20030;-69
2024/03/20 02:16:40;;;;;;;15.43;8.25;;;;;;;2.63;100.00;96445.16;1027470;28;20523;-71
2024/03/20 02:17:13;;;;;;;14.02;7.50;;;;;;;2.62;100.00;96444.34;1027093;28;20435;-68
2024/03/20 02:17:43;;;;;;;19.85;7.72;;;;;;;2.64;100.00;96446.72;1027385;28;20070;-69
2024/03/20 02:18:14;;;;;;;13.05;7.95;;;;;;;2.64;100.00;96449.31;1026876;28;20318;-69
2024/03/20 02:18:45;;;;;;;16.20;8.25;;;;;;;2.63;100.00;96451.13;1030820;28;20034;-69
2024/03/20 02:19:15;;;;;;;15.98;7.85;;;;;;;2.62;100.00;96438.38;1022963;28;20532;-69
2024/03/20 02:19:46;;;;;;;12.02;7.40;;;;;;;2.63;100.00;96445.16;1023148;28;20282;-69
2024/03/20 02:20:17;;;;;;;13.48;7.70;;;;;;;2.64;100.00;96446.72;1025494;28;20038;-70
2024/03/20 02:20:47;;;;;;;13.73;7.93;;;;;;;2.65;100.00;96448.31;1027427;28;20098;-69
2024/03/20 02:21:20;;;;;;;11.60;7.65;;;;;;;2.65;100.00;96449.16;1031268;28;20985;-69
2024/03/20 02:21:50;;;;;;;13.20;7.47;;;;;;;2.64;100.00;96446.72;1035364;28;20040;-70
2024/03/20 02:22:21;;;;;;;14.50;7.75;;;;;;;2.64;100.00;96451.91;1035167;28;20272;-69
2024/03/20 02:22:51;;;;;;;12.73;7.65;;;;;;;2.63;100.00;96448.53;1030541;28;20037;-69
2024/03/20 02:23:21;;;;;;;12.80;7.47;;;;;;;2.64;100.00;96452.72;1027409;28;20073;-69